sensor_id;sensor_type;location;lat;lon;timestamp;pressure;altitude;pressure_sealevel;temperature;humidity
60019;BME280;45870;42.528;26.740;2023-08-08T00:00:47;99235.53;;;24.79;37.57
60019;BME280;45870;42.528;26.740;2023-08-08T00:03:13;99233.06;;;24.45;38.42
60019;BME280;45870;42.528;26.740;2023-08-08T00:05:39;99229.13;;;24.25;38.84
60019;BME280;45870;42.528;26.740;2023-08-08T00:08:05;99220.50;;;24.06;39.06
60019;BME280;45870;42.528;26.740;2023-08-08T00:10:31;99226.00;;;23.77;39.86
60019;BME280;45870;42.528;26.740;2023-08-08T00:12:56;99226.94;;;24.10;38.84
60019;BME280;45870;42.528;26.740;2023-08-08T00:15:22;99221.53;;;24.43;38.46
60019;BME280;45870;42.528;26.740;2023-08-08T00:17:48;99213.34;;;24.34;38.39
60019;BME280;45870;42.528;26.740;2023-08-08T00:20:14;99229.00;;;24.63;38.38
60019;BME280;45870;42.528;26.740;2023-08-08T00:22:39;99229.72;;;24.93;37.82
60019;BME280;45870;42.528;26.740;2023-08-08T00:25:05;99207.34;;;24.32;39.58
60019;BME280;45870;42.528;26.740;2023-08-08T00:27:31;99232.38;;;25.02;38.25
60019;BME280;45870;42.528;26.740;2023-08-08T00:29:56;99201.09;;;24.44;39.63
60019;BME280;45870;42.528;26.740;2023-08-08T00:32:22;99225.78;;;24.61;40.10
60019;BME280;45870;42.528;26.740;2023-08-08T00:34:48;99187.00;;;25.11;38.93
60019;BME280;45870;42.528;26.740;2023-08-08T00:37:13;99233.13;;;25.92;38.18
60019;BME280;45870;42.528;26.740;2023-08-08T00:39:39;99231.84;;;25.53;38.98
60019;BME280;45870;42.528;26.740;2023-08-08T00:42:07;99220.72;;;25.17;39.79
60019;BME280;45870;42.528;26.740;2023-08-08T00:44:33;99229.66;;;26.07;38.26
60019;BME280;45870;42.528;26.740;2023-08-08T00:46:58;99235.19;;;25.83;38.51
60019;BME280;45870;42.528;26.740;2023-08-08T00:49:24;99235.91;;;25.68;39.08
60019;BME280;45870;42.528;26.740;2023-08-08T00:51:50;99229.59;;;25.34;39.52
60019;BME280;45870;42.528;26.740;2023-08-08T00:54:15;99224.97;;;26.60;37.97
60019;BME280;45870;42.528;26.740;2023-08-08T00:56:41;99212.22;;;26.71;37.25
60019;BME280;45870;42.528;26.740;2023-08-08T00:59:08;99227.25;;;26.06;38.22
60019;BME280;45870;42.528;26.740;2023-08-08T01:01:37;99214.56;;;26.17;38.42
60019;BME280;45870;42.528;26.740;2023-08-08T01:04:02;99171.19;;;25.57;39.66
60019;BME280;45870;42.528;26.740;2023-08-08T01:09:32;99234.06;;;25.72;39.47
60019;BME280;45870;42.528;26.740;2023-08-08T01:12:00;99229.31;;;26.09;38.88
60019;BME280;45870;42.528;26.740;2023-08-08T01:14:29;99238.31;;;25.57;40.33
60019;BME280;45870;42.528;26.740;2023-08-08T01:16:56;99236.13;;;25.63;40.00
60019;BME280;45870;42.528;26.740;2023-08-08T01:19:28;99253.06;;;25.61;40.66
60019;BME280;45870;42.528;26.740;2023-08-08T01:21:58;99230.31;;;27.67;36.41
60019;BME280;45870;42.528;26.740;2023-08-08T01:24:26;99246.47;;;26.78;38.11
60019;BME280;45870;42.528;26.740;2023-08-08T01:26:55;99245.78;;;25.93;39.84
60019;BME280;45870;42.528;26.740;2023-08-08T01:29:21;99242.00;;;27.02;37.80
60019;BME280;45870;42.528;26.740;2023-08-08T01:31:46;99222.16;;;25.47;40.78
60019;BME280;45870;42.528;26.740;2023-08-08T01:34:12;99227.72;;;25.71;40.64
60019;BME280;45870;42.528;26.740;2023-08-08T01:36:44;99218.38;;;26.24;40.18
60019;BME280;45870;42.528;26.740;2023-08-08T01:39:15;99229.91;;;25.66;41.29
60019;BME280;45870;42.528;26.740;2023-08-08T01:41:43;99224.69;;;24.54;43.78
60019;BME280;45870;42.528;26.740;2023-08-08T01:44:11;99227.59;;;25.92;40.43
60019;BME280;45870;42.528;26.740;2023-08-08T01:46:37;99193.81;;;25.38;41.33
60019;BME280;45870;42.528;26.740;2023-08-08T01:49:03;99242.13;;;24.87;42.92
60019;BME280;45870;42.528;26.740;2023-08-08T01:51:29;99237.50;;;25.57;41.38
60019;BME280;45870;42.528;26.740;2023-08-08T01:53:55;99236.94;;;25.75;41.35
60019;BME280;45870;42.528;26.740;2023-08-08T01:56:21;99225.94;;;25.43;41.79
60019;BME280;45870;42.528;26.740;2023-08-08T01:58:47;99238.97;;;24.56;43.38
60019;BME280;45870;42.528;26.740;2023-08-08T02:01:12;99194.75;;;24.64;43.07
60019;BME280;45870;42.528;26.740;2023-08-08T02:03:38;99248.00;;;24.44;44.18
60019;BME280;45870;42.528;26.740;2023-08-08T02:06:04;99234.88;;;24.62;43.67
60019;BME280;45870;42.528;26.740;2023-08-08T02:08:29;99230.94;;;26.10;40.27
60019;BME280;45870;42.528;26.740;2023-08-08T02:10:55;99239.50;;;25.35;42.27
60019;BME280;45870;42.528;26.740;2023-08-08T02:13:21;99249.44;;;25.49;41.76
60019;BME280;45870;42.528;26.740;2023-08-08T02:15:46;99241.47;;;25.02;43.02
60019;BME280;45870;42.528;26.740;2023-08-08T02:18:12;99250.50;;;25.56;41.49
60019;BME280;45870;42.528;26.740;2023-08-08T02:20:38;99229.34;;;25.15;42.32
60019;BME280;45870;42.528;26.740;2023-08-08T02:23:03;99255.06;;;24.54;43.96
60019;BME280;45870;42.528;26.740;2023-08-08T02:25:29;99271.28;;;24.55;43.97
60019;BME280;45870;42.528;26.740;2023-08-08T02:27:56;99269.06;;;24.90;42.87
60019;BME280;45870;42.528;26.740;2023-08-08T02:30:22;99273.56;;;25.60;42.00
60019;BME280;45870;42.528;26.740;2023-08-08T02:32:48;99273.09;;;24.93;42.93
60019;BME280;45870;42.528;26.740;2023-08-08T02:35:13;99279.88;;;25.73;41.38
60019;BME280;45870;42.528;26.740;2023-08-08T02:37:39;99283.53;;;24.66;44.03
60019;BME280;45870;42.528;26.740;2023-08-08T02:40:06;99284.78;;;25.43;41.99
60019;BME280;45870;42.528;26.740;2023-08-08T02:42:32;99280.59;;;25.58;41.88
60019;BME280;45870;42.528;26.740;2023-08-08T02:44:57;99290.13;;;25.27;42.34
60019;BME280;45870;42.528;26.740;2023-08-08T02:47:23;99293.75;;;24.66;43.68
60019;BME280;45870;42.528;26.740;2023-08-08T02:49:50;99294.50;;;24.54;43.97
60019;BME280;45870;42.528;26.740;2023-08-08T02:52:15;99290.75;;;25.33;42.22
60019;BME280;45870;42.528;26.740;2023-08-08T02:54:41;99301.91;;;25.04;42.98
60019;BME280;45870;42.528;26.740;2023-08-08T02:57:06;99293.28;;;25.05;42.76
60019;BME280;45870;42.528;26.740;2023-08-08T02:59:32;99304.53;;;24.79;43.43
60019;BME280;45870;42.528;26.740;2023-08-08T03:01:58;99304.44;;;25.09;42.77
60019;BME280;45870;42.528;26.740;2023-08-08T03:04:23;99309.84;;;25.71;41.52
60019;BME280;45870;42.528;26.740;2023-08-08T03:06:49;99303.84;;;25.93;41.34
60019;BME280;45870;42.528;26.740;2023-08-08T03:09:14;99270.53;;;25.08;42.26
60019;BME280;45870;42.528;26.740;2023-08-08T03:11:40;99307.91;;;25.71;41.49
60019;BME280;45870;42.528;26.740;2023-08-08T03:14:07;99313.75;;;25.37;42.25
60019;BME280;45870;42.528;26.740;2023-08-08T03:16:34;99325.50;;;25.01;42.88
60019;BME280;45870;42.528;26.740;2023-08-08T03:19:00;99299.38;;;25.89;40.84
60019;BME280;45870;42.528;26.740;2023-08-08T03:21:25;99303.66;;;25.98;40.36
60019;BME280;45870;42.528;26.740;2023-08-08T03:23:51;99338.81;;;25.53;41.75
60019;BME280;45870;42.528;26.740;2023-08-08T03:26:16;99302.28;;;25.14;41.74
60019;BME280;45870;42.528;26.740;2023-08-08T03:28:42;99321.00;;;25.09;42.54
60019;BME280;45870;42.528;26.740;2023-08-08T03:31:08;99296.47;;;25.28;41.90
60019;BME280;45870;42.528;26.740;2023-08-08T03:33:34;99350.06;;;24.73;43.65
60019;BME280;45870;42.528;26.740;2023-08-08T03:35:59;99379.34;;;25.28;42.19
60019;BME280;45870;42.528;26.740;2023-08-08T03:38:25;99344.16;;;25.37;41.84
60019;BME280;45870;42.528;26.740;2023-08-08T03:40:51;99355.84;;;25.22;42.65
60019;BME280;45870;42.528;26.740;2023-08-08T03:43:16;99352.00;;;25.80;41.60
60019;BME280;45870;42.528;26.740;2023-08-08T03:45:42;99353.94;;;26.24;40.40
60019;BME280;45870;42.528;26.740;2023-08-08T03:48:08;99356.56;;;26.09;40.71
60019;BME280;45870;42.528;26.740;2023-08-08T03:50:33;99358.06;;;25.28;42.28
60019;BME280;45870;42.528;26.740;2023-08-08T03:53:00;99364.84;;;24.69;43.67
60019;BME280;45870;42.528;26.740;2023-08-08T03:55:26;99335.47;;;25.47;41.94
60019;BME280;45870;42.528;26.740;2023-08-08T03:57:52;99323.00;;;25.08;42.54
60019;BME280;45870;42.528;26.740;2023-08-08T04:00:18;99353.94;;;25.34;42.64
60019;BME280;45870;42.528;26.740;2023-08-08T04:02:43;99260.22;;;24.97;42.03
60019;BME280;45870;42.528;26.740;2023-08-08T04:05:09;99357.97;;;26.63;40.04
60019;BME280;45870;42.528;26.740;2023-08-08T04:07:35;99365.91;;;26.65;39.49
60019;BME280;45870;42.528;26.740;2023-08-08T04:10:01;99376.28;;;25.42;42.19
60019;BME280;45870;42.528;26.740;2023-08-08T04:12:26;99378.66;;;25.84;41.44
60019;BME280;45870;42.528;26.740;2023-08-08T04:14:52;99379.88;;;26.32;40.30
60019;BME280;45870;42.528;26.740;2023-08-08T04:17:18;99375.91;;;27.34;38.22
60019;BME280;45870;42.528;26.740;2023-08-08T04:19:43;99301.13;;;26.42;39.35
60019;BME280;45870;42.528;26.740;2023-08-08T04:22:09;99381.00;;;25.62;41.92
60019;BME280;45870;42.528;26.740;2023-08-08T04:24:35;99362.38;;;25.71;41.41
60019;BME280;45870;42.528;26.740;2023-08-08T04:27:01;99382.88;;;25.70;41.43
60019;BME280;45870;42.528;26.740;2023-08-08T04:29:27;99347.09;;;26.83;38.70
60019;BME280;45870;42.528;26.740;2023-08-08T04:31:52;99382.94;;;27.87;37.34
60019;BME280;45870;42.528;26.740;2023-08-08T04:34:18;99374.25;;;27.45;37.67
60019;BME280;45870;42.528;26.740;2023-08-08T04:36:44;99366.13;;;27.24;38.39
60019;BME280;45870;42.528;26.740;2023-08-08T04:39:09;99387.13;;;27.80;37.35
60019;BME280;45870;42.528;26.740;2023-08-08T04:41:35;99380.53;;;27.85;36.72
60019;BME280;45870;42.528;26.740;2023-08-08T04:44:01;99387.16;;;26.49;39.42
60019;BME280;45870;42.528;26.740;2023-08-08T04:46:26;99370.31;;;27.46;38.31
60019;BME280;45870;42.528;26.740;2023-08-08T04:48:52;99394.31;;;27.54;37.72
60019;BME280;45870;42.528;26.740;2023-08-08T04:51:18;99389.63;;;27.02;38.65
60019;BME280;45870;42.528;26.740;2023-08-08T04:53:43;99399.47;;;27.27;38.10
60019;BME280;45870;42.528;26.740;2023-08-08T04:56:09;99391.06;;;27.24;38.21
60019;BME280;45870;42.528;26.740;2023-08-08T04:58:34;99347.91;;;26.47;38.75
60019;BME280;45870;42.528;26.740;2023-08-08T05:01:00;99407.31;;;26.37;39.79
60019;BME280;45870;42.528;26.740;2023-08-08T05:03:26;99405.09;;;27.03;38.38
60019;BME280;45870;42.528;26.740;2023-08-08T05:05:51;99401.44;;;26.26;39.96
60019;BME280;45870;42.528;26.740;2023-08-08T05:08:17;99428.53;;;25.88;40.89
60019;BME280;45870;42.528;26.740;2023-08-08T05:10:43;99385.69;;;25.82;40.11
60019;BME280;45870;42.528;26.740;2023-08-08T05:13:09;99457.13;;;25.92;41.29
60019;BME280;45870;42.528;26.740;2023-08-08T05:15:36;99461.88;;;26.85;38.82
60019;BME280;45870;42.528;26.740;2023-08-08T05:18:01;99461.75;;;26.00;41.08
60019;BME280;45870;42.528;26.740;2023-08-08T05:20:27;99415.78;;;25.63;41.35
60019;BME280;45870;42.528;26.740;2023-08-08T05:22:53;99479.94;;;26.22;40.96
60019;BME280;45870;42.528;26.740;2023-08-08T05:25:18;99440.22;;;26.06;40.58
60019;BME280;45870;42.528;26.740;2023-08-08T05:27:44;99482.69;;;26.22;41.35
60019;BME280;45870;42.528;26.740;2023-08-08T05:30:10;99478.34;;;26.33;41.19
60019;BME280;45870;42.528;26.740;2023-08-08T05:32:36;99482.03;;;26.37;40.58
60019;BME280;45870;42.528;26.740;2023-08-08T05:35:02;99423.13;;;26.49;39.71
60019;BME280;45870;42.528;26.740;2023-08-08T05:37:29;99480.03;;;27.87;38.38
60019;BME280;45870;42.528;26.740;2023-08-08T05:39:55;99492.72;;;27.60;38.41
60019;BME280;45870;42.528;26.740;2023-08-08T05:42:21;99460.59;;;27.07;39.31
60019;BME280;45870;42.528;26.740;2023-08-08T05:44:47;99519.66;;;26.50;40.62
60019;BME280;45870;42.528;26.740;2023-08-08T05:47:13;99522.47;;;25.97;41.88
60019;BME280;45870;42.528;26.740;2023-08-08T05:49:38;99488.16;;;26.43;40.53
60019;BME280;45870;42.528;26.740;2023-08-08T05:52:06;99525.84;;;26.02;41.77
60019;BME280;45870;42.528;26.740;2023-08-08T05:54:32;99518.53;;;26.63;40.74
60019;BME280;45870;42.528;26.740;2023-08-08T05:56:58;99535.44;;;26.38;41.09
60019;BME280;45870;42.528;26.740;2023-08-08T05:59:23;99532.16;;;25.41;42.63
60019;BME280;45870;42.528;26.740;2023-08-08T06:01:49;99539.03;;;25.64;42.21
60019;BME280;45870;42.528;26.740;2023-08-08T06:04:15;99546.38;;;26.34;41.35
60019;BME280;45870;42.528;26.740;2023-08-08T06:06:41;99544.88;;;26.94;39.81
60019;BME280;45870;42.528;26.740;2023-08-08T06:09:06;99560.47;;;26.98;39.86
60019;BME280;45870;42.528;26.740;2023-08-08T06:11:34;99507.22;;;26.68;39.34
60019;BME280;45870;42.528;26.740;2023-08-08T06:14:00;99524.28;;;26.13;40.67
60019;BME280;45870;42.528;26.740;2023-08-08T06:16:25;99517.47;;;25.49;41.64
60019;BME280;45870;42.528;26.740;2023-08-08T06:18:52;99574.63;;;25.86;41.19
60019;BME280;45870;42.528;26.740;2023-08-08T06:21:20;99565.03;;;25.83;40.38
60019;BME280;45870;42.528;26.740;2023-08-08T06:23:46;99574.22;;;26.62;39.13
60019;BME280;45870;42.528;26.740;2023-08-08T06:26:13;99562.59;;;24.65;42.65
60019;BME280;45870;42.528;26.740;2023-08-08T06:28:39;99567.63;;;25.39;40.93
60019;BME280;45870;42.528;26.740;2023-08-08T06:31:04;99554.88;;;26.29;39.08
60019;BME280;45870;42.528;26.740;2023-08-08T06:33:30;99561.03;;;27.04;38.19
60019;BME280;45870;42.528;26.740;2023-08-08T06:35:56;99556.34;;;25.73;40.33
60019;BME280;45870;42.528;26.740;2023-08-08T06:38:22;99557.28;;;25.77;39.79
60019;BME280;45870;42.528;26.740;2023-08-08T06:40:47;99556.19;;;26.31;38.73
60019;BME280;45870;42.528;26.740;2023-08-08T06:43:13;99561.41;;;25.21;41.00
60019;BME280;45870;42.528;26.740;2023-08-08T06:45:39;99562.44;;;25.08;41.22
60019;BME280;45870;42.528;26.740;2023-08-08T06:48:05;99575.16;;;25.59;40.36
60019;BME280;45870;42.528;26.740;2023-08-08T06:50:31;99579.63;;;25.72;40.07
60019;BME280;45870;42.528;26.740;2023-08-08T06:52:56;99552.66;;;24.00;43.56
60019;BME280;45870;42.528;26.740;2023-08-08T06:55:22;99585.91;;;23.95;44.13
60019;BME280;45870;42.528;26.740;2023-08-08T06:57:48;99594.38;;;24.16;43.42
60019;BME280;45870;42.528;26.740;2023-08-08T07:00:13;99560.56;;;24.91;42.26
60019;BME280;45870;42.528;26.740;2023-08-08T07:02:39;99588.59;;;25.10;41.43
60019;BME280;45870;42.528;26.740;2023-08-08T07:05:06;99587.00;;;25.30;40.83
60019;BME280;45870;42.528;26.740;2023-08-08T07:07:32;99588.09;;;25.88;39.64
60019;BME280;45870;42.528;26.740;2023-08-08T07:09:59;99553.25;;;25.74;38.94
60019;BME280;45870;42.528;26.740;2023-08-08T07:12:25;99598.75;;;25.48;39.51
60019;BME280;45870;42.528;26.740;2023-08-08T07:14:50;99604.50;;;26.13;38.71
60019;BME280;45870;42.528;26.740;2023-08-08T07:17:16;99608.84;;;26.14;38.66
60019;BME280;45870;42.528;26.740;2023-08-08T07:19:42;99578.97;;;25.46;38.86
60019;BME280;45870;42.528;26.740;2023-08-08T07:22:07;99597.88;;;25.35;38.42
60019;BME280;45870;42.528;26.740;2023-08-08T07:24:34;99626.41;;;25.56;37.98
60019;BME280;45870;42.528;26.740;2023-08-08T07:27:00;99639.13;;;25.02;39.22
60019;BME280;45870;42.528;26.740;2023-08-08T07:29:26;99598.41;;;25.28;38.10
60019;BME280;45870;42.528;26.740;2023-08-08T07:31:53;99626.16;;;26.32;36.10
60019;BME280;45870;42.528;26.740;2023-08-08T07:34:19;99580.91;;;25.45;37.16
60019;BME280;45870;42.528;26.740;2023-08-08T07:36:46;99619.81;;;27.46;34.42
60019;BME280;45870;42.528;26.740;2023-08-08T07:39:11;99627.44;;;26.14;36.20
60019;BME280;45870;42.528;26.740;2023-08-08T07:41:38;99609.00;;;26.39;35.48
60019;BME280;45870;42.528;26.740;2023-08-08T07:44:05;99639.19;;;27.09;33.54
60019;BME280;45870;42.528;26.740;2023-08-08T07:46:30;99642.16;;;26.26;35.92
60019;BME280;45870;42.528;26.740;2023-08-08T07:48:56;99641.88;;;25.99;36.90
60019;BME280;45870;42.528;26.740;2023-08-08T07:51:25;99633.78;;;26.35;37.25
60019;BME280;45870;42.528;26.740;2023-08-08T07:53:50;99640.94;;;27.02;35.67
60019;BME280;45870;42.528;26.740;2023-08-08T07:56:16;99638.91;;;24.61;39.90
60019;BME280;45870;42.528;26.740;2023-08-08T07:58:42;99650.78;;;23.84;42.03
60019;BME280;45870;42.528;26.740;2023-08-08T08:01:08;99658.81;;;23.55;42.88
60019;BME280;45870;42.528;26.740;2023-08-08T08:03:33;99641.88;;;24.56;40.69
60019;BME280;45870;42.528;26.740;2023-08-08T08:05:59;99648.28;;;23.57;42.02
60019;BME280;45870;42.528;26.740;2023-08-08T08:08:25;99654.50;;;23.88;41.78
60019;BME280;45870;42.528;26.740;2023-08-08T08:10:51;99657.22;;;23.54;42.22
60019;BME280;45870;42.528;26.740;2023-08-08T08:13:17;99664.41;;;23.98;40.31
60019;BME280;45870;42.528;26.740;2023-08-08T08:15:43;99665.22;;;23.98;39.63
60019;BME280;45870;42.528;26.740;2023-08-08T08:18:09;99597.47;;;23.32;39.63
60019;BME280;45870;42.528;26.740;2023-08-08T08:20:34;99660.53;;;23.99;38.63
60019;BME280;45870;42.528;26.740;2023-08-08T08:23:00;99651.72;;;23.79;38.62
60019;BME280;45870;42.528;26.740;2023-08-08T08:25:26;99648.75;;;24.96;36.26
60019;BME280;45870;42.528;26.740;2023-08-08T08:27:51;99650.28;;;25.61;35.22
60019;BME280;45870;42.528;26.740;2023-08-08T08:30:17;99644.94;;;24.54;36.79
60019;BME280;45870;42.528;26.740;2023-08-08T08:32:44;99658.81;;;26.71;33.81
60019;BME280;45870;42.528;26.740;2023-08-08T08:35:10;99622.84;;;25.97;33.83
60019;BME280;45870;42.528;26.740;2023-08-08T08:37:38;99625.81;;;26.33;32.52
60019;BME280;45870;42.528;26.740;2023-08-08T08:40:04;99638.97;;;24.26;36.77
60019;BME280;45870;42.528;26.740;2023-08-08T08:42:31;99649.91;;;26.12;33.29
60019;BME280;45870;42.528;26.740;2023-08-08T08:44:58;99684.94;;;25.12;35.45
60019;BME280;45870;42.528;26.740;2023-08-08T08:47:24;99670.75;;;24.50;35.98
60019;BME280;45870;42.528;26.740;2023-08-08T08:49:52;99678.19;;;25.68;33.14
60019;BME280;45870;42.528;26.740;2023-08-08T08:52:18;99675.09;;;24.94;34.80
60019;BME280;45870;42.528;26.740;2023-08-08T08:54:44;99619.78;;;23.70;36.42
60019;BME280;45870;42.528;26.740;2023-08-08T08:57:10;99654.22;;;26.43;32.28
60019;BME280;45870;42.528;26.740;2023-08-08T08:59:37;99646.91;;;24.45;35.14
60019;BME280;45870;42.528;26.740;2023-08-08T09:02:03;99672.28;;;26.61;32.33
60019;BME280;45870;42.528;26.740;2023-08-08T09:04:29;99658.63;;;25.73;32.79
60019;BME280;45870;42.528;26.740;2023-08-08T09:06:55;99668.03;;;26.96;31.98
60019;BME280;45870;42.528;26.740;2023-08-08T09:09:21;99659.41;;;25.53;33.03
60019;BME280;45870;42.528;26.740;2023-08-08T09:11:50;99681.69;;;25.10;34.82
60019;BME280;45870;42.528;26.740;2023-08-08T09:14:20;99664.31;;;25.97;33.47
60019;BME280;45870;42.528;26.740;2023-08-08T09:16:47;99685.00;;;26.41;32.33
60019;BME280;45870;42.528;26.740;2023-08-08T09:19:14;99648.34;;;24.00;36.07
60019;BME280;45870;42.528;26.740;2023-08-08T09:21:40;99673.63;;;24.70;34.99
60019;BME280;45870;42.528;26.740;2023-08-08T09:24:06;99669.69;;;25.73;33.86
60019;BME280;45870;42.528;26.740;2023-08-08T09:26:33;99635.97;;;25.21;33.75
60019;BME280;45870;42.528;26.740;2023-08-08T09:29:01;99672.91;;;25.54;33.93
60019;BME280;45870;42.528;26.740;2023-08-08T09:31:27;99680.09;;;25.38;34.63
60019;BME280;45870;42.528;26.740;2023-08-08T09:33:58;99686.53;;;25.21;35.08
60019;BME280;45870;42.528;26.740;2023-08-08T09:36:24;99677.28;;;25.84;33.88
60019;BME280;45870;42.528;26.740;2023-08-08T09:38:51;99678.50;;;24.82;35.96
60019;BME280;45870;42.528;26.740;2023-08-08T09:41:18;99679.69;;;24.47;36.90
60019;BME280;45870;42.528;26.740;2023-08-08T09:43:45;99680.66;;;24.33;37.43
60019;BME280;45870;42.528;26.740;2023-08-08T09:46:10;99673.34;;;24.46;37.81
60019;BME280;45870;42.528;26.740;2023-08-08T09:48:39;99678.09;;;25.09;36.35
60019;BME280;45870;42.528;26.740;2023-08-08T09:51:05;99680.16;;;24.66;37.14
60019;BME280;45870;42.528;26.740;2023-08-08T09:53:32;99653.50;;;24.78;37.27
60019;BME280;45870;42.528;26.740;2023-08-08T09:56:00;99672.47;;;24.97;37.17
60019;BME280;45870;42.528;26.740;2023-08-08T09:58:27;99661.16;;;25.19;36.49
60019;BME280;45870;42.528;26.740;2023-08-08T10:00:53;99656.91;;;24.84;37.72
60019;BME280;45870;42.528;26.740;2023-08-08T10:03:19;99661.47;;;25.26;36.93
60019;BME280;45870;42.528;26.740;2023-08-08T10:05:45;99654.28;;;24.88;38.50
60019;BME280;45870;42.528;26.740;2023-08-08T10:08:14;99689.19;;;23.80;41.44
60019;BME280;45870;42.528;26.740;2023-08-08T10:10:42;99666.13;;;23.59;42.01
60019;BME280;45870;42.528;26.740;2023-08-08T10:13:10;99686.72;;;22.92;44.66
60019;BME280;45870;42.528;26.740;2023-08-08T10:15:44;99680.75;;;23.77;42.56
60019;BME280;45870;42.528;26.740;2023-08-08T10:18:12;99685.53;;;24.62;41.15
60019;BME280;45870;42.528;26.740;2023-08-08T10:20:42;99645.88;;;23.72;42.69
60019;BME280;45870;42.528;26.740;2023-08-08T10:23:08;99689.88;;;24.80;41.24
60019;BME280;45870;42.528;26.740;2023-08-08T10:25:33;99698.66;;;24.40;41.59
60019;BME280;45870;42.528;26.740;2023-08-08T10:28:08;99692.31;;;24.56;41.53
60019;BME280;45870;42.528;26.740;2023-08-08T10:33:28;99677.41;;;24.31;41.80
60019;BME280;45870;42.528;26.740;2023-08-08T10:36:00;99692.78;;;25.39;40.11
60019;BME280;45870;42.528;26.740;2023-08-08T10:38:37;99650.72;;;26.13;38.62
60019;BME280;45870;42.528;26.740;2023-08-08T10:41:04;99696.47;;;25.52;39.97
60019;BME280;45870;42.528;26.740;2023-08-08T10:43:30;99681.69;;;27.25;36.72
60019;BME280;45870;42.528;26.740;2023-08-08T10:46:03;99645.81;;;27.65;35.39
60019;BME280;45870;42.528;26.740;2023-08-08T10:48:30;99694.00;;;28.37;34.06
60019;BME280;45870;42.528;26.740;2023-08-08T10:50:59;99662.50;;;27.20;36.28
60019;BME280;45870;42.528;26.740;2023-08-08T10:53:28;99652.00;;;27.14;35.77
60019;BME280;45870;42.528;26.740;2023-08-08T10:55:58;99690.78;;;30.00;31.32
60019;BME280;45870;42.528;26.740;2023-08-08T10:58:37;99624.84;;;27.80;33.50
60019;BME280;45870;42.528;26.740;2023-08-08T11:01:04;99689.78;;;30.28;30.71
60019;BME280;45870;42.528;26.740;2023-08-08T11:03:36;99675.84;;;29.58;31.28
60019;BME280;45870;42.528;26.740;2023-08-08T11:06:03;99679.97;;;30.14;29.82
60019;BME280;45870;42.528;26.740;2023-08-08T11:08:34;99681.50;;;30.31;30.42
60019;BME280;45870;42.528;26.740;2023-08-08T11:11:04;99641.72;;;30.31;30.40
60019;BME280;45870;42.528;26.740;2023-08-08T11:13:30;99677.19;;;30.72;30.29
60019;BME280;45870;42.528;26.740;2023-08-08T11:15:56;99678.50;;;31.20;29.34
60019;BME280;45870;42.528;26.740;2023-08-08T11:18:22;99678.59;;;30.62;29.44
60019;BME280;45870;42.528;26.740;2023-08-08T11:20:49;99683.22;;;32.14;27.42
60019;BME280;45870;42.528;26.740;2023-08-08T11:23:15;99665.63;;;31.35;28.72
60019;BME280;45870;42.528;26.740;2023-08-08T11:25:44;99677.97;;;29.80;29.72
60019;BME280;45870;42.528;26.740;2023-08-08T11:28:11;99684.97;;;30.63;29.81
60019;BME280;45870;42.528;26.740;2023-08-08T11:30:40;99653.28;;;31.13;27.68
60019;BME280;45870;42.528;26.740;2023-08-08T11:33:07;99621.47;;;31.93;27.74
60019;BME280;45870;42.528;26.740;2023-08-08T11:35:32;99654.06;;;30.91;28.78
60019;BME280;45870;42.528;26.740;2023-08-08T11:38:00;99678.16;;;33.71;25.55
60019;BME280;45870;42.528;26.740;2023-08-08T11:40:28;99671.84;;;33.37;26.28
60019;BME280;45870;42.528;26.740;2023-08-08T11:42:55;99668.06;;;32.78;26.67
60019;BME280;45870;42.528;26.740;2023-08-08T11:45:22;99657.41;;;33.82;25.63
60019;BME280;45870;42.528;26.740;2023-08-08T11:47:49;99597.16;;;33.44;25.70
60019;BME280;45870;42.528;26.740;2023-08-08T11:50:15;99613.56;;;28.41;32.29
60019;BME280;45870;42.528;26.740;2023-08-08T11:52:42;99652.81;;;30.88;28.78
60019;BME280;45870;42.528;26.740;2023-08-08T11:55:10;99633.72;;;34.41;23.87
60019;BME280;45870;42.528;26.740;2023-08-08T11:57:38;99646.94;;;31.61;27.03
60019;BME280;45870;42.528;26.740;2023-08-08T12:00:08;99649.38;;;31.40;28.26
60019;BME280;45870;42.528;26.740;2023-08-08T12:02:35;99641.00;;;31.63;27.52
60019;BME280;45870;42.528;26.740;2023-08-08T12:05:06;99608.44;;;28.27;32.75
60019;BME280;45870;42.528;26.740;2023-08-08T12:07:33;99623.56;;;31.20;28.92
60019;BME280;45870;42.528;26.740;2023-08-08T12:10:03;99580.09;;;31.46;28.09
60019;BME280;45870;42.528;26.740;2023-08-08T12:12:32;99633.66;;;30.87;29.15
60019;BME280;45870;42.528;26.740;2023-08-08T12:15:07;99628.75;;;31.22;29.46
60019;BME280;45870;42.528;26.740;2023-08-08T12:17:34;99580.88;;;29.40;30.66
60019;BME280;45870;42.528;26.740;2023-08-08T12:20:00;99619.13;;;31.95;27.38
60019;BME280;45870;42.528;26.740;2023-08-08T12:22:26;99625.72;;;31.08;26.59
60019;BME280;45870;42.528;26.740;2023-08-08T12:24:51;99606.00;;;33.02;25.21
60019;BME280;45870;42.528;26.740;2023-08-08T12:27:17;99601.28;;;31.73;26.41
60019;BME280;45870;42.528;26.740;2023-08-08T12:29:43;99620.16;;;32.13;26.92
60019;BME280;45870;42.528;26.740;2023-08-08T12:32:10;99601.06;;;32.15;25.17
60019;BME280;45870;42.528;26.740;2023-08-08T12:34:35;99597.75;;;30.82;27.47
60019;BME280;45870;42.528;26.740;2023-08-08T12:37:02;99594.72;;;30.67;28.48
60019;BME280;45870;42.528;26.740;2023-08-08T12:39:28;99475.03;;;31.53;26.51
60019;BME280;45870;42.528;26.740;2023-08-08T12:41:54;99592.59;;;31.03;26.42
60019;BME280;45870;42.528;26.740;2023-08-08T12:44:20;99574.97;;;32.37;26.32
60019;BME280;45870;42.528;26.740;2023-08-08T12:46:45;99578.69;;;33.33;25.07
60019;BME280;45870;42.528;26.740;2023-08-08T12:49:11;99539.19;;;31.83;25.52
60019;BME280;45870;42.528;26.740;2023-08-08T12:51:37;99526.78;;;30.98;25.93